createdAt,value
2017-08-15T00:01:24.061Z,21.14
2017-08-15T00:02:24.101Z,21.14
2017-08-15T00:04:18.581Z,21.13
2017-08-15T00:05:18.605Z,21.31
2017-08-15T00:07:13.061Z,21.16
2017-08-15T00:08:13.100Z,21.13
2017-08-15T00:10:07.582Z,21.24
2017-08-15T00:11:07.598Z,21.22
2017-08-15T00:13:02.062Z,21.19
2017-08-15T00:14:02.109Z,21.16
2017-08-15T00:15:56.581Z,21.12
2017-08-15T00:16:56.606Z,21.10
2017-08-15T00:18:51.079Z,21.06
2017-08-15T00:19:51.093Z,20.99
2017-08-15T00:21:45.566Z,20.94
2017-08-15T00:22:45.622Z,21.03
2017-08-15T00:24:40.078Z,20.99
2017-08-15T00:25:40.094Z,20.95
2017-08-15T00:27:34.558Z,21.04
2017-08-15T00:28:34.598Z,21.06
2017-08-15T00:30:29.102Z,21.03
2017-08-15T00:31:29.113Z,21.06
2017-08-15T00:33:23.582Z,21.07
2017-08-15T00:34:23.622Z,20.97
2017-08-15T00:36:18.231Z,20.99
2017-08-15T00:37:18.214Z,20.91
2017-08-15T00:39:12.671Z,20.87
2017-08-15T00:40:12.694Z,21.04
2017-08-15T00:42:07.191Z,21.06
2017-08-15T00:43:07.191Z,21.06
2017-08-15T00:45:01.668Z,21.01
2017-08-15T00:46:01.695Z,20.99
2017-08-15T00:47:56.175Z,20.99
2017-08-15T00:48:56.199Z,20.97
2017-08-15T00:50:49.719Z,21.01
2017-08-15T00:51:49.759Z,20.98
2017-08-15T00:53:44.247Z,20.88
2017-08-15T00:54:44.271Z,20.99
2017-08-15T00:56:38.735Z,20.91
2017-08-15T00:57:38.767Z,20.95
2017-08-15T00:59:33.223Z,20.91
2017-08-15T01:00:33.263Z,20.99
2017-08-15T01:02:27.760Z,20.89
2017-08-15T01:03:27.768Z,20.89
2017-08-15T01:05:22.223Z,20.87
2017-08-15T01:06:22.256Z,20.79
2017-08-15T01:08:16.742Z,20.76
2017-08-15T01:09:16.759Z,20.70
2017-08-15T01:11:11.248Z,20.87
2017-08-15T01:12:11.255Z,20.80
2017-08-15T01:14:05.715Z,20.80
2017-08-15T01:15:05.763Z,20.87
2017-08-15T01:17:01.864Z,20.77
2017-08-15T01:18:01.869Z,20.76
2017-08-15T01:19:54.824Z,20.72
2017-08-15T01:20:54.888Z,20.72
2017-08-15T01:22:49.344Z,20.72
2017-08-15T01:23:49.360Z,20.72
2017-08-15T01:25:44.449Z,20.72
2017-08-15T01:26:44.416Z,20.73
2017-08-15T01:28:37.912Z,20.72
2017-08-15T01:29:37.929Z,20.66
2017-08-15T01:31:32.369Z,20.59
2017-08-15T01:32:32.685Z,20.62
2017-08-15T01:34:26.896Z,20.67
2017-08-15T01:35:26.929Z,20.69
2017-08-15T01:37:21.433Z,20.59
2017-08-15T01:38:20.553Z,20.66
2017-08-15T01:40:14.025Z,20.64
2017-08-15T01:41:14.033Z,20.59
2017-08-15T01:43:08.497Z,20.59
2017-08-15T01:44:08.537Z,20.51
2017-08-15T01:46:03.009Z,20.48
2017-08-15T01:47:03.033Z,20.52
2017-08-15T01:48:56.593Z,20.50
2017-08-15T01:49:56.641Z,20.52
2017-08-15T01:51:50.106Z,20.52
2017-08-15T01:52:50.105Z,20.51
2017-08-15T01:54:44.585Z,20.52
2017-08-15T01:55:44.593Z,20.48
2017-08-15T01:57:39.209Z,20.41
2017-08-15T01:58:39.210Z,20.42
2017-08-15T02:00:33.684Z,20.43
2017-08-15T02:01:33.673Z,20.41
2017-08-15T02:03:27.138Z,20.41
2017-08-15T02:04:27.187Z,20.36
2017-08-15T02:06:21.674Z,20.39
2017-08-15T02:07:21.674Z,20.39
2017-08-15T02:09:16.130Z,20.26
2017-08-15T02:10:16.170Z,20.26
2017-08-15T02:12:11.267Z,20.29
2017-08-15T02:13:12.182Z,20.24
2017-08-15T02:15:05.731Z,20.28
2017-08-15T02:16:05.771Z,20.32
2017-08-15T02:18:00.259Z,20.32
2017-08-15T02:19:00.275Z,20.21
2017-08-15T02:20:54.715Z,20.14
2017-08-15T02:21:54.770Z,20.28
2017-08-15T02:23:49.266Z,20.26
2017-08-15T02:24:49.258Z,20.21
2017-08-15T02:26:42.731Z,20.13
2017-08-15T02:27:42.755Z,20.21
2017-08-15T02:29:37.259Z,20.18
2017-08-15T02:30:37.284Z,20.18
2017-08-15T02:32:31.715Z,20.16
2017-08-15T02:33:31.747Z,20.17
2017-08-15T02:35:26.230Z,20.20
2017-08-15T02:36:26.251Z,20.32
2017-08-15T02:38:20.771Z,20.21
2017-08-15T02:39:20.835Z,20.17
2017-08-15T02:41:14.300Z,20.14
2017-08-15T02:42:14.315Z,20.20
2017-08-15T02:44:08.772Z,20.17
2017-08-15T02:45:08.812Z,20.21
2017-08-15T02:47:04.868Z,20.14
2017-08-15T02:48:04.892Z,20.13
2017-08-15T02:49:59.349Z,20.21
2017-08-15T02:50:59.372Z,20.18
2017-08-15T02:52:53.868Z,20.18
2017-08-15T02:53:53.869Z,20.11
2017-08-15T02:55:48.316Z,20.13
2017-08-15T02:56:48.358Z,20.06
2017-08-15T02:58:42.844Z,20.06
2017-08-15T02:59:42.876Z,20.05
2017-08-15T03:01:36.340Z,20.03
2017-08-15T03:02:36.365Z,20.08
2017-08-15T03:04:30.860Z,20.10
2017-08-15T03:05:30.852Z,20.10
2017-08-15T03:07:25.909Z,20.10
2017-08-15T03:08:25.949Z,20.13
2017-08-15T03:10:20.452Z,20.13
2017-08-15T03:11:20.460Z,20.03
2017-08-15T03:13:14.957Z,20.11
2017-08-15T03:14:14.981Z,20.10
2017-08-15T03:16:09.444Z,20.05
2017-08-15T03:17:09.469Z,20.01
2017-08-15T03:19:03.981Z,20.02
2017-08-15T03:20:03.965Z,19.95
2017-08-15T03:21:58.452Z,20.01
2017-08-15T03:22:58.469Z,20.01
2017-08-15T03:24:52.917Z,19.95
2017-08-15T03:25:52.957Z,19.94
2017-08-15T03:27:47.438Z,20.02
2017-08-15T03:28:47.469Z,19.99
2017-08-15T03:30:41.910Z,19.81
2017-08-15T03:31:41.941Z,19.81
2017-08-15T03:33:36.446Z,19.86
2017-08-15T03:34:36.462Z,19.83
2017-08-15T03:36:31.167Z,19.74
2017-08-15T03:37:30.958Z,19.65
2017-08-15T03:39:25.430Z,19.81
2017-08-15T03:40:25.446Z,19.68
2017-08-15T03:42:19.902Z,19.68
2017-08-15T03:43:19.934Z,19.69
2017-08-15T03:45:14.438Z,19.62
2017-08-15T03:46:14.438Z,19.73
2017-08-15T03:48:08.902Z,19.74
2017-08-15T03:49:08.942Z,19.71
2017-08-15T03:51:03.430Z,19.66
2017-08-15T03:52:03.446Z,19.58
2017-08-15T03:53:56.942Z,19.56
2017-08-15T03:54:56.966Z,19.54
2017-08-15T03:56:50.478Z,19.48
2017-08-15T03:57:50.462Z,19.46
2017-08-15T03:59:44.919Z,19.51
2017-08-15T04:00:44.943Z,19.50
2017-08-15T04:02:39.430Z,19.46
2017-08-15T04:03:39.447Z,19.56
2017-08-15T04:05:32.903Z,19.46
2017-08-15T04:06:32.943Z,19.43
2017-08-15T04:08:26.503Z,19.47
2017-08-15T04:09:26.527Z,19.44
2017-08-15T04:11:20.959Z,19.41
2017-08-15T04:12:21.015Z,19.46
2017-08-15T04:14:14.575Z,19.51
2017-08-15T04:15:14.591Z,19.47
2017-08-15T04:17:09.023Z,19.39
2017-08-15T04:18:09.063Z,19.44
2017-08-15T04:20:03.567Z,19.36
2017-08-15T04:21:03.568Z,19.47
2017-08-15T04:22:58.024Z,19.46
2017-08-15T04:23:58.063Z,19.48
2017-08-15T04:25:53.008Z,19.44
2017-08-15T04:26:52.592Z,19.44
2017-08-15T04:28:47.024Z,19.37
2017-08-15T04:29:47.055Z,19.37
2017-08-15T04:31:41.528Z,19.36
2017-08-15T04:32:41.543Z,19.32
2017-08-15T04:34:35.104Z,19.32
2017-08-15T04:35:35.153Z,19.41
2017-08-15T04:37:28.584Z,19.43
2017-08-15T04:38:28.641Z,19.32
2017-08-15T04:40:23.287Z,19.40
2017-08-15T04:41:23.160Z,19.32
2017-08-15T04:43:17.600Z,19.40
2017-08-15T04:44:17.633Z,19.33
2017-08-15T04:46:11.208Z,19.36
2017-08-15T04:47:11.216Z,19.40
2017-08-15T04:49:05.745Z,19.47
2017-08-15T04:50:05.788Z,19.47
2017-08-15T04:51:59.400Z,19.48
2017-08-15T04:52:59.424Z,19.41
2017-08-15T04:54:52.376Z,19.46
2017-08-15T04:55:52.457Z,19.39
2017-08-15T04:57:46.920Z,19.31
2017-08-15T04:58:46.936Z,19.39
2017-08-15T05:00:41.448Z,19.33
2017-08-15T05:01:41.416Z,19.44
2017-08-15T05:03:35.896Z,19.47
2017-08-15T05:04:35.945Z,19.47
2017-08-15T05:06:30.376Z,19.40
2017-08-15T05:07:30.408Z,19.37
2017-08-15T05:09:25.312Z,19.36
2017-08-15T05:10:25.281Z,19.41
2017-08-15T05:12:20.753Z,19.33
2017-08-15T05:13:20.776Z,19.47
2017-08-15T05:15:15.233Z,19.40
2017-08-15T05:16:15.274Z,19.47
2017-08-15T05:18:09.755Z,19.39
2017-08-15T05:19:09.772Z,19.41
2017-08-15T05:21:04.307Z,19.47
2017-08-15T05:22:04.276Z,19.44
2017-08-15T05:23:58.756Z,19.50
2017-08-15T05:24:58.829Z,19.44
2017-08-15T05:26:53.236Z,19.55
2017-08-15T05:27:53.276Z,19.51
2017-08-15T05:29:47.751Z,19.55
2017-08-15T05:30:47.764Z,19.51
2017-08-15T05:32:42.244Z,19.55
2017-08-15T05:33:42.260Z,19.59
2017-08-15T05:35:36.741Z,19.66
2017-08-15T05:36:36.765Z,19.71
2017-08-15T05:38:31.213Z,19.66
2017-08-15T05:39:31.253Z,19.69
2017-08-15T05:41:25.829Z,19.66
2017-08-15T05:42:25.757Z,19.65
2017-08-15T05:44:20.773Z,19.81
2017-08-15T05:45:20.997Z,19.81
2017-08-15T05:47:14.526Z,19.87
2017-08-15T05:48:14.352Z,19.81
2017-08-15T05:50:08.769Z,19.81
2017-08-15T05:51:09.066Z,19.87
2017-08-15T05:53:03.304Z,19.95
2017-08-15T05:54:03.312Z,19.99
2017-08-15T05:55:57.753Z,20.01
2017-08-15T05:56:57.793Z,20.05
2017-08-15T05:58:51.280Z,20.05
2017-08-15T05:59:51.296Z,20.11
2017-08-15T06:01:45.761Z,20.18
2017-08-15T06:02:45.792Z,20.20
2017-08-15T06:04:40.264Z,20.24
2017-08-15T06:05:40.291Z,20.32
2017-08-15T06:07:34.777Z,20.41
2017-08-15T06:08:34.808Z,20.47
2017-08-15T06:10:29.289Z,20.41
2017-08-15T06:11:29.297Z,20.41
2017-08-15T06:13:23.761Z,20.55
2017-08-15T06:14:23.785Z,20.61
2017-08-15T06:16:18.282Z,20.66
2017-08-15T06:17:18.297Z,20.64
2017-08-15T06:19:11.769Z,20.67
2017-08-15T06:20:12.009Z,20.73
2017-08-15T06:22:06.257Z,20.82
2017-08-15T06:23:06.282Z,20.92
2017-08-15T06:25:00.762Z,20.85
2017-08-15T06:26:00.778Z,20.87
2017-08-15T06:27:55.273Z,20.91
2017-08-15T06:28:55.298Z,20.98
2017-08-15T06:30:49.753Z,20.95
2017-08-15T06:31:49.794Z,20.95
2017-08-15T06:33:44.287Z,20.98
2017-08-15T06:34:44.292Z,21.06
2017-08-15T06:36:38.770Z,20.98
2017-08-15T06:37:38.794Z,20.95
2017-08-15T06:39:32.275Z,21.04
2017-08-15T06:40:32.289Z,21.01
2017-08-15T06:42:26.754Z,21.03
2017-08-15T06:43:26.803Z,21.10
2017-08-15T06:45:21.291Z,21.27
2017-08-15T06:46:21.291Z,21.31
2017-08-15T06:48:15.771Z,21.50
2017-08-15T06:49:15.819Z,21.53
2017-08-15T06:51:10.287Z,21.69
2017-08-15T06:52:10.307Z,21.74
2017-08-15T06:54:04.803Z,21.79
2017-08-15T06:55:04.803Z,21.80
2017-08-15T06:56:58.283Z,21.90
2017-08-15T06:57:58.307Z,21.92
2017-08-15T06:59:52.802Z,22.00
2017-08-15T07:00:52.811Z,22.07
2017-08-15T07:02:47.283Z,22.06
2017-08-15T07:03:47.315Z,22.14
2017-08-15T07:05:41.835Z,22.17
2017-08-15T07:06:41.819Z,22.25
2017-08-15T07:08:36.275Z,22.37
2017-08-15T07:09:36.316Z,22.42
2017-08-15T07:11:30.795Z,22.52
2017-08-15T07:12:30.819Z,22.54
2017-08-15T07:14:25.275Z,22.73
2017-08-15T07:15:25.324Z,22.75
2017-08-15T07:17:31.308Z,22.80
2017-08-15T07:18:31.341Z,22.80
2017-08-15T07:20:25.796Z,22.94
2017-08-15T07:21:25.828Z,22.95
2017-08-15T07:23:19.340Z,22.90
2017-08-15T07:24:19.348Z,22.98
2017-08-15T07:26:12.844Z,22.94
2017-08-15T07:27:12.844Z,23.00
2017-08-15T07:29:07.332Z,23.05
2017-08-15T07:30:07.372Z,23.04
2017-08-15T07:32:01.852Z,23.09
2017-08-15T07:33:01.876Z,23.12
2017-08-15T07:34:56.348Z,23.17
2017-08-15T07:35:56.420Z,23.33
2017-08-15T07:37:50.881Z,23.31
2017-08-15T07:38:50.877Z,23.32
2017-08-15T07:40:45.325Z,23.42
2017-08-15T07:41:45.389Z,23.40
2017-08-15T07:43:39.877Z,23.51
2017-08-15T07:44:39.933Z,23.47
2017-08-15T07:46:33.341Z,23.46
2017-08-15T07:47:33.389Z,23.53
2017-08-15T07:49:27.885Z,23.55
2017-08-15T07:50:27.885Z,23.58
2017-08-15T07:52:22.365Z,23.65
2017-08-15T07:53:22.478Z,23.69
2017-08-15T07:55:15.877Z,23.78
2017-08-15T07:56:15.909Z,23.75
2017-08-15T07:58:10.380Z,23.94
2017-08-15T07:59:10.405Z,23.97
2017-08-15T08:01:04.869Z,24.10
2017-08-15T08:02:04.909Z,24.16
2017-08-15T08:03:59.429Z,24.30
2017-08-15T08:04:59.421Z,24.28
2017-08-15T08:06:53.925Z,24.34
2017-08-15T08:07:53.929Z,24.47
2017-08-15T08:09:48.381Z,24.62
2017-08-15T08:10:48.429Z,24.76
2017-08-15T08:12:42.909Z,24.73
2017-08-15T08:13:42.941Z,24.83
2017-08-15T08:15:37.405Z,24.91
2017-08-15T08:16:37.453Z,24.98
2017-08-15T08:18:30.950Z,25.08
2017-08-15T08:19:30.965Z,25.02
2017-08-15T08:21:24.437Z,25.14
2017-08-15T08:22:24.550Z,25.13
2017-08-15T08:24:18.982Z,25.09
2017-08-15T08:25:18.990Z,25.20
2017-08-15T08:27:14.992Z,25.08
2017-08-15T08:28:15.038Z,24.95
2017-08-15T08:30:09.486Z,24.93
2017-08-15T08:31:09.526Z,24.95
2017-08-15T08:33:03.982Z,24.78
2017-08-15T08:34:04.022Z,24.73
2017-08-15T08:35:58.518Z,24.80
2017-08-15T08:36:58.526Z,24.76
2017-08-15T08:38:52.982Z,24.91
2017-08-15T08:39:53.032Z,24.90
2017-08-15T08:41:47.558Z,24.90
2017-08-15T08:42:47.535Z,25.02
2017-08-15T08:44:41.014Z,25.05
2017-08-15T08:45:41.055Z,25.08
2017-08-15T08:47:35.535Z,24.96
2017-08-15T08:48:35.551Z,25.05
2017-08-15T08:50:30.071Z,25.06
2017-08-15T08:51:30.062Z,25.08
2017-08-15T08:53:24.511Z,25.21
2017-08-15T08:54:24.575Z,25.15
2017-08-15T08:56:19.063Z,25.30
2017-08-15T08:57:19.078Z,25.33
2017-08-15T08:59:12.547Z,25.33
2017-08-15T09:00:12.591Z,25.47
2017-08-15T09:02:07.095Z,25.61
2017-08-15T09:03:07.113Z,25.55
2017-08-15T09:05:01.575Z,25.69
2017-08-15T09:06:01.616Z,25.72
2017-08-15T09:08:06.600Z,25.80
2017-08-15T09:09:06.623Z,25.85
2017-08-15T09:11:01.136Z,25.85
2017-08-15T09:12:01.144Z,25.92
2017-08-15T09:14:09.679Z,25.83
2017-08-15T09:15:09.727Z,25.91
2017-08-15T09:17:04.194Z,25.72
2017-08-15T09:18:04.216Z,25.62
2017-08-15T09:19:58.690Z,25.72
2017-08-15T09:20:58.776Z,25.76
2017-08-15T09:22:52.208Z,25.87
2017-08-15T09:23:52.241Z,25.94
2017-08-15T09:25:46.713Z,25.94
2017-08-15T09:26:46.753Z,26.07
2017-08-15T09:28:41.230Z,26.06
2017-08-15T09:29:41.296Z,26.13
2017-08-15T09:31:35.720Z,26.07
2017-08-15T09:32:35.762Z,26.15
2017-08-15T09:34:30.249Z,26.20
2017-08-15T09:35:30.272Z,26.10
2017-08-15T09:37:36.293Z,26.12
2017-08-15T09:38:36.313Z,26.23
2017-08-15T09:40:29.788Z,26.17
2017-08-15T09:41:29.809Z,26.09
2017-08-15T09:43:24.313Z,26.10
2017-08-15T09:44:24.321Z,26.06
2017-08-15T09:46:18.785Z,25.98
2017-08-15T09:47:18.833Z,25.97
2017-08-15T09:49:13.308Z,26.01
2017-08-15T09:50:13.345Z,26.06
2017-08-15T09:52:06.842Z,25.97
2017-08-15T09:53:06.865Z,25.91
2017-08-15T09:55:01.305Z,25.95
2017-08-15T09:56:01.362Z,25.94
2017-08-15T09:57:55.833Z,25.97
2017-08-15T09:58:55.866Z,25.90
2017-08-15T10:00:50.329Z,25.83
2017-08-15T10:01:50.378Z,25.87
2017-08-15T10:03:44.906Z,25.92
2017-08-15T10:04:44.906Z,25.91
2017-08-15T10:06:39.410Z,25.80
2017-08-15T10:07:39.426Z,25.64
2017-08-15T10:09:33.882Z,25.47
2017-08-15T10:10:33.946Z,25.58
2017-08-15T10:12:28.378Z,25.72
2017-08-15T10:13:28.418Z,25.67
2017-08-15T10:15:22.922Z,25.72
2017-08-15T10:16:22.938Z,25.75
2017-08-15T10:18:16.426Z,25.77
2017-08-15T10:19:16.442Z,25.72
2017-08-15T10:21:10.906Z,25.79
2017-08-15T10:22:10.946Z,25.85
2017-08-15T10:24:05.450Z,25.87
2017-08-15T10:25:05.459Z,25.85
2017-08-15T10:26:59.924Z,25.91
2017-08-15T10:28:00.963Z,25.83
2017-08-15T10:30:06.466Z,25.64
2017-08-15T10:31:06.443Z,25.52
2017-08-15T10:33:01.947Z,25.58
2017-08-15T10:34:01.971Z,25.47
2017-08-15T10:35:56.460Z,25.52
2017-08-15T10:36:56.444Z,25.57
2017-08-15T10:38:52.500Z,25.55
2017-08-15T10:39:52.483Z,25.60
2017-08-15T10:41:46.955Z,25.57
2017-08-15T10:42:46.995Z,25.61
2017-08-15T10:44:41.475Z,25.75
2017-08-15T10:45:41.507Z,25.61
2017-08-15T10:47:37.586Z,25.94
2017-08-15T10:48:37.596Z,25.97
2017-08-15T10:50:32.517Z,26.06
2017-08-15T10:51:32.564Z,26.12
2017-08-15T10:53:27.076Z,26.15
2017-08-15T10:54:27.077Z,26.25
2017-08-15T10:56:23.084Z,26.55
2017-08-15T10:57:23.220Z,26.50
2017-08-15T10:59:17.700Z,26.72
2017-08-15T11:00:17.701Z,26.88
2017-08-15T11:02:13.709Z,27.09
2017-08-15T11:03:24.983Z,27.18
2017-08-15T11:06:58.157Z,27.43
2017-08-15T11:07:58.085Z,27.31
2017-08-15T11:09:45.725Z,27.51
2017-08-15T11:10:45.772Z,27.67
2017-08-15T11:12:40.252Z,27.63
2017-08-15T11:13:40.502Z,27.63
2017-08-15T11:15:34.744Z,27.47
2017-08-15T11:16:35.174Z,27.41
2017-08-15T11:18:29.261Z,27.82
2017-08-15T11:19:29.605Z,28.04
2017-08-15T11:21:32.525Z,28.31
2017-08-15T11:22:33.755Z,28.48
2017-08-15T11:26:01.077Z,28.25
2017-08-15T11:26:59.614Z,28.14
2017-08-15T11:28:55.533Z,28.03
2017-08-15T11:29:55.629Z,27.97
2017-08-15T11:31:52.710Z,28.15
2017-08-15T11:34:07.677Z,28.19
2017-08-15T11:35:07.678Z,28.27
2017-08-15T11:37:02.542Z,29.41
2017-08-15T11:38:02.214Z,30.13
2017-08-15T11:40:07.278Z,31.65
2017-08-15T11:41:07.317Z,32.38
2017-08-15T11:43:02.142Z,34.03
2017-08-15T11:44:01.831Z,34.82
2017-08-15T11:45:57.078Z,35.70
2017-08-15T11:48:11.374Z,35.66
2017-08-15T11:49:11.383Z,35.71
2017-08-15T11:51:07.687Z,36.98
2017-08-15T11:52:07.742Z,37.84
2017-08-15T11:54:01.967Z,38.93
2017-08-15T11:55:01.999Z,39.75
2017-08-15T11:56:56.511Z,39.75
2017-08-15T11:57:56.535Z,39.88
2017-08-15T11:59:51.015Z,40.35
2017-08-15T12:00:51.119Z,40.79
2017-08-15T12:02:47.071Z,41.20
2017-08-15T12:03:47.183Z,41.76
2017-08-15T12:05:41.657Z,42.27
2017-08-15T12:06:41.640Z,43.10
2017-08-15T12:08:36.167Z,43.31
2017-08-15T12:09:36.184Z,43.75
2017-08-15T12:11:30.680Z,43.76
2017-08-15T12:12:30.695Z,44.05
2017-08-15T12:14:25.272Z,44.41
2017-08-15T12:15:25.239Z,43.60
2017-08-15T12:17:19.736Z,43.83
2017-08-15T12:18:19.920Z,44.07
2017-08-15T12:20:14.368Z,44.95
2017-08-15T12:21:14.304Z,44.88
2017-08-15T12:23:08.808Z,44.92
2017-08-15T12:24:08.848Z,45.47
2017-08-15T12:26:03.352Z,45.93
2017-08-15T12:27:03.384Z,45.92
2017-08-15T12:28:57.872Z,44.82
2017-08-15T12:29:58.224Z,45.05
2017-08-15T12:31:51.560Z,46.62
2017-08-15T12:32:51.592Z,46.72
2017-08-15T12:34:46.105Z,47.07
2017-08-15T12:35:46.137Z,47.05
2017-08-15T12:37:40.625Z,46.99
2017-08-15T12:38:40.678Z,46.53
2017-08-15T12:40:36.737Z,45.85
2017-08-15T12:41:36.713Z,45.47
2017-08-15T12:43:31.193Z,46.15
2017-08-15T12:44:31.255Z,46.53
2017-08-15T12:46:25.831Z,45.24
2017-08-15T12:47:25.847Z,44.26
2017-08-15T12:49:20.312Z,43.18
2017-08-15T12:50:20.320Z,43.33
2017-08-15T12:52:16.353Z,44.44
2017-08-15T12:53:16.376Z,44.34
2017-08-15T12:55:10.887Z,43.05
2017-08-15T12:56:10.912Z,42.01
2017-08-15T12:58:05.392Z,41.30
2017-08-15T12:59:05.456Z,42.12
2017-08-15T13:01:00.088Z,41.87
2017-08-15T13:02:00.024Z,42.09
2017-08-15T13:03:53.632Z,41.54
2017-08-15T13:04:53.536Z,40.73
2017-08-15T13:06:48.072Z,39.51
2017-08-15T13:07:48.096Z,39.40
2017-08-15T13:09:42.625Z,38.11
2017-08-15T13:10:42.680Z,37.70
2017-08-15T13:12:36.224Z,37.17
2017-08-15T13:13:36.169Z,36.71
2017-08-15T13:15:33.424Z,35.28
2017-08-15T13:17:45.745Z,34.59
2017-08-15T13:18:45.792Z,34.46
2017-08-15T13:20:40.289Z,34.27
2017-08-15T13:21:40.321Z,33.87
2017-08-15T13:23:34.865Z,33.59
2017-08-15T13:24:34.841Z,33.47
2017-08-15T13:26:29.369Z,33.50
2017-08-15T13:27:29.401Z,33.39
2017-08-15T13:29:23.857Z,33.35
2017-08-15T13:30:23.913Z,33.15
2017-08-15T13:32:18.425Z,33.21
2017-08-15T13:33:18.433Z,33.12
2017-08-15T13:35:12.913Z,33.18
2017-08-15T13:36:12.975Z,33.49
2017-08-15T13:38:07.466Z,34.15
2017-08-15T13:39:07.486Z,34.70
2017-08-15T13:41:01.954Z,36.31
2017-08-15T13:42:02.010Z,37.12
2017-08-15T13:43:56.498Z,38.00
2017-08-15T13:44:56.522Z,38.01
2017-08-15T13:46:51.010Z,36.80
2017-08-15T13:47:51.065Z,36.32
2017-08-15T13:49:45.522Z,36.44
2017-08-15T13:50:45.570Z,36.47
2017-08-15T13:52:39.084Z,36.44
2017-08-15T13:53:39.114Z,36.15
2017-08-15T13:55:33.594Z,35.48
2017-08-15T13:56:33.666Z,35.10
2017-08-15T13:58:28.138Z,34.65
2017-08-15T13:59:28.354Z,34.43
2017-08-15T14:01:22.666Z,33.94
2017-08-15T14:02:22.690Z,33.61
2017-08-15T14:04:17.210Z,33.23
2017-08-15T14:05:17.242Z,32.93
2017-08-15T14:07:11.691Z,32.85
2017-08-15T14:08:11.739Z,32.40
2017-08-15T14:10:06.243Z,32.14
2017-08-15T14:11:06.283Z,31.68
2017-08-15T14:13:00.747Z,31.51
2017-08-15T14:14:00.804Z,30.95
2017-08-15T14:15:55.300Z,30.43
2017-08-15T14:16:55.308Z,30.46
2017-08-15T14:18:49.779Z,30.27
2017-08-15T14:19:49.827Z,30.22
2017-08-15T14:21:44.348Z,29.98
2017-08-15T14:22:44.363Z,29.95
2017-08-15T14:24:37.451Z,30.05
2017-08-15T14:25:37.548Z,29.95
2017-08-15T14:27:31.995Z,29.89
2017-08-15T14:28:32.011Z,29.63
2017-08-15T14:30:26.548Z,29.87
2017-08-15T14:31:26.541Z,29.95
2017-08-15T14:33:20.995Z,29.67
2017-08-15T14:34:21.044Z,29.42
2017-08-15T14:36:15.540Z,29.18
2017-08-15T14:37:15.580Z,29.18
2017-08-15T14:39:10.100Z,29.12
2017-08-15T14:40:10.220Z,29.12
2017-08-15T14:42:04.564Z,29.04
2017-08-15T14:43:04.620Z,29.11
2017-08-15T14:44:58.124Z,29.30
2017-08-15T14:45:58.124Z,29.27
2017-08-15T14:47:52.604Z,29.14
2017-08-15T14:48:52.644Z,29.21
2017-08-15T14:50:47.188Z,29.16
2017-08-15T14:51:47.172Z,29.14
2017-08-15T14:53:41.644Z,28.92
2017-08-15T14:54:41.677Z,28.88
2017-08-15T14:56:36.164Z,28.76
2017-08-15T14:57:36.180Z,28.78
2017-08-15T14:59:29.693Z,28.59
2017-08-15T15:00:29.708Z,28.49
2017-08-15T15:02:24.197Z,28.51
2017-08-15T15:03:24.221Z,28.43
2017-08-15T15:05:18.708Z,28.59
2017-08-15T15:06:18.733Z,28.58
2017-08-15T15:08:13.230Z,28.52
2017-08-15T15:09:13.245Z,28.44
2017-08-15T15:11:07.717Z,28.18
2017-08-15T15:12:07.749Z,28.22
2017-08-15T15:14:02.277Z,28.14
2017-08-15T15:15:02.262Z,28.14
2017-08-15T15:16:55.726Z,28.12
2017-08-15T15:17:55.765Z,28.06
2017-08-15T15:19:50.253Z,28.30
2017-08-15T15:20:50.277Z,28.21
2017-08-15T15:22:44.742Z,28.44
2017-08-15T15:23:44.790Z,28.54
2017-08-15T15:25:39.294Z,28.44
2017-08-15T15:26:39.302Z,28.68
2017-08-15T15:28:33.782Z,28.74
2017-08-15T15:29:33.822Z,28.51
2017-08-15T15:31:28.310Z,28.14
2017-08-15T15:32:28.326Z,28.17
2017-08-15T15:34:21.799Z,28.15
2017-08-15T15:35:21.838Z,28.29
2017-08-15T15:37:16.334Z,28.00
2017-08-15T15:38:16.350Z,28.14
2017-08-15T15:40:09.862Z,27.90
2017-08-15T15:41:09.878Z,27.74
2017-08-15T15:43:04.358Z,27.82
2017-08-15T15:44:04.382Z,27.72
2017-08-15T15:45:58.871Z,27.65
2017-08-15T15:46:58.894Z,27.60
2017-08-15T15:48:53.374Z,27.43
2017-08-15T15:49:53.407Z,27.29
2017-08-15T15:51:47.878Z,27.07
2017-08-15T15:52:47.911Z,27.04
2017-08-15T15:54:42.392Z,26.88
2017-08-15T15:55:42.423Z,26.75
2017-08-15T15:57:36.920Z,26.91
2017-08-15T15:58:36.959Z,26.87
2017-08-15T16:00:31.407Z,26.75
2017-08-15T16:01:31.448Z,26.72
2017-08-15T16:03:25.927Z,26.60
2017-08-15T16:04:25.960Z,26.50
2017-08-15T16:06:19.456Z,26.48
2017-08-15T16:07:19.479Z,26.35
2017-08-15T16:09:14.783Z,26.17
2017-08-15T16:10:14.815Z,26.30
2017-08-15T16:12:08.312Z,26.21
2017-08-15T16:13:08.357Z,26.15
2017-08-15T16:15:02.928Z,26.15
2017-08-15T16:16:02.864Z,26.10
2017-08-15T16:17:58.457Z,26.15
2017-08-15T16:18:57.376Z,26.05
2017-08-15T16:20:51.824Z,25.92
2017-08-15T16:21:51.864Z,25.98
2017-08-15T16:23:46.408Z,25.91
2017-08-15T16:24:46.416Z,25.94
2017-08-15T16:26:39.880Z,25.77
2017-08-15T16:27:39.937Z,25.62
2017-08-15T16:29:34.464Z,25.52
2017-08-15T16:30:34.536Z,25.60
2017-08-15T16:32:28.920Z,25.55
2017-08-15T16:33:28.953Z,25.58
2017-08-15T16:35:23.441Z,25.57
2017-08-15T16:36:23.457Z,25.61
2017-08-15T16:38:17.953Z,25.73
2017-08-15T16:39:18.001Z,25.67
2017-08-15T16:41:12.458Z,25.55
2017-08-15T16:42:12.458Z,25.60
2017-08-15T16:44:06.962Z,25.50
2017-08-15T16:45:07.443Z,25.58
2017-08-15T16:47:06.029Z,25.35
2017-08-15T16:48:03.906Z,25.54
2017-08-15T16:50:06.201Z,25.35
2017-08-15T16:51:06.330Z,25.54
2017-08-15T16:52:52.153Z,25.60
2017-08-15T16:53:52.072Z,25.55
2017-08-15T16:55:47.787Z,25.52
2017-08-15T16:56:47.626Z,25.46
2017-08-15T16:58:50.025Z,25.32
2017-08-15T16:59:42.562Z,25.30
2017-08-15T17:01:36.667Z,25.25
2017-08-15T17:02:36.798Z,25.20
2017-08-15T17:04:31.550Z,25.27
2017-08-15T17:05:39.902Z,25.25
2017-08-15T17:07:24.754Z,25.30
2017-08-15T17:08:24.726Z,25.18
2017-08-15T17:10:19.238Z,25.30
2017-08-15T17:11:19.366Z,25.21
2017-08-15T17:13:13.751Z,25.35
2017-08-15T17:14:13.838Z,25.33
2017-08-15T17:16:08.318Z,25.33
2017-08-15T17:17:08.335Z,25.24
2017-08-15T17:19:02.823Z,25.27
2017-08-15T17:20:02.863Z,25.18
2017-08-15T17:21:57.302Z,25.28
2017-08-15T17:22:57.334Z,25.32
2017-08-15T17:24:50.781Z,25.27
2017-08-15T17:29:06.396Z,25.13
2017-08-15T17:30:07.812Z,25.20
2017-08-15T17:32:00.605Z,25.15
2017-08-15T17:33:00.029Z,25.15
2017-08-15T17:34:53.589Z,25.17
2017-08-15T17:35:53.421Z,25.21
2017-08-15T17:37:46.949Z,25.09
2017-08-15T17:38:47.004Z,25.08
2017-08-15T17:40:41.421Z,25.09
2017-08-15T17:41:50.094Z,25.05
2017-08-15T17:43:48.085Z,24.96
2017-08-15T17:44:48.006Z,24.85
2017-08-15T17:46:54.781Z,24.73
2017-08-15T17:47:54.097Z,24.71
2017-08-15T17:49:49.381Z,24.80
2017-08-15T17:50:49.405Z,24.69
2017-08-15T17:52:44.382Z,24.65
2017-08-15T17:53:43.919Z,24.47
2017-08-15T17:55:40.190Z,24.43
2017-08-15T17:56:39.918Z,24.37
2017-08-15T17:58:34.399Z,24.25
2017-08-15T17:59:34.438Z,24.28
2017-08-15T18:01:27.870Z,24.12
2017-08-15T18:02:27.902Z,23.94
2017-08-15T18:04:22.405Z,23.93
2017-08-15T18:05:22.449Z,23.95
2017-08-15T18:07:16.878Z,23.95
2017-08-15T18:08:16.934Z,23.90
2017-08-15T18:10:10.439Z,23.91
2017-08-15T18:11:10.479Z,23.76
2017-08-15T18:13:28.007Z,23.66
2017-08-15T18:14:28.265Z,23.53
2017-08-15T18:16:22.472Z,23.53
2017-08-15T18:17:22.519Z,23.48
2017-08-15T18:19:16.999Z,23.51
2017-08-15T18:20:17.023Z,23.38
2017-08-15T18:22:11.583Z,23.54
2017-08-15T18:23:11.527Z,23.47
2017-08-15T18:25:04.999Z,23.63
2017-08-15T18:26:05.075Z,23.61
2017-08-15T18:27:58.527Z,23.50
2017-08-15T18:28:58.591Z,23.46
2017-08-15T18:30:53.031Z,23.53
2017-08-15T18:31:53.086Z,23.61
2017-08-15T18:33:46.584Z,23.58
2017-08-15T18:34:46.591Z,23.66
2017-08-15T18:36:41.002Z,23.65
2017-08-15T18:37:41.058Z,23.61
2017-08-15T18:39:46.056Z,23.47
2017-08-15T18:40:46.064Z,23.28
2017-08-15T18:42:40.560Z,23.16
2017-08-15T18:43:40.601Z,23.17
2017-08-15T18:45:35.064Z,23.32
2017-08-15T18:46:35.088Z,23.17
2017-08-15T18:48:29.546Z,23.27
2017-08-15T18:49:29.624Z,23.33
2017-08-15T18:51:24.064Z,23.25
2017-08-15T18:52:24.112Z,23.27
2017-08-15T18:54:18.585Z,23.16